sensor_id;sensor_type;location;lat;lon;timestamp;P1;P2;P0
72023;PMS5003;59889;50.700;5.440;2022-07-19T00:02:18;3;2;
72023;PMS5003;59889;50.700;5.440;2022-07-19T00:04:43;2;2;
72023;PMS5003;59889;50.700;5.440;2022-07-19T00:07:09;2;2;
72023;PMS5003;59889;50.700;5.440;2022-07-19T00:09:35;3;3;
72023;PMS5003;59889;50.700;5.440;2022-07-19T00:12:01;3;3;
72023;PMS5003;59889;50.700;5.440;2022-07-19T00:14:27;2;2;
72023;PMS5003;59889;50.700;5.440;2022-07-19T00:16:52;4;4;
72023;PMS5003;59889;50.700;5.440;2022-07-19T00:19:18;2;2;
72023;PMS5003;59889;50.700;5.440;2022-07-19T00:21:44;2;2;
72023;PMS5003;59889;50.700;5.440;2022-07-19T00:24:10;3;3;
72023;PMS5003;59889;50.700;5.440;2022-07-19T00:26:36;3;3;
72023;PMS5003;59889;50.700;5.440;2022-07-19T00:29:02;3;3;
72023;PMS5003;59889;50.700;5.440;2022-07-19T00:31:28;3;3;
72023;PMS5003;59889;50.700;5.440;2022-07-19T00:33:53;3;3;
72023;PMS5003;59889;50.700;5.440;2022-07-19T00:36:19;2;2;
72023;PMS5003;59889;50.700;5.440;2022-07-19T00:38:45;2;2;
72023;PMS5003;59889;50.700;5.440;2022-07-19T00:41:11;2;2;
72023;PMS5003;59889;50.700;5.440;2022-07-19T00:43:39;4;4;
72023;PMS5003;59889;50.700;5.440;2022-07-19T00:46:02;3;3;
72023;PMS5003;59889;50.700;5.440;2022-07-19T00:48:28;6;5;
72023;PMS5003;59889;50.700;5.440;2022-07-19T00:50:54;2;2;
72023;PMS5003;59889;50.700;5.440;2022-07-19T00:53:20;3;3;
72023;PMS5003;59889;50.700;5.440;2022-07-19T00:55:46;2;2;
72023;PMS5003;59889;50.700;5.440;2022-07-19T00:58:12;3;3;
72023;PMS5003;59889;50.700;5.440;2022-07-19T01:00:37;4;4;
72023;PMS5003;59889;50.700;5.440;2022-07-19T01:03:03;3;2;
72023;PMS5003;59889;50.700;5.440;2022-07-19T01:05:29;3;2;
72023;PMS5003;59889;50.700;5.440;2022-07-19T01:07:55;3;3;
72023;PMS5003;59889;50.700;5.440;2022-07-19T01:10:20;4;4;
72023;PMS5003;59889;50.700;5.440;2022-07-19T01:12:46;3;3;
72023;PMS5003;59889;50.700;5.440;2022-07-19T01:15:13;3;3;
72023;PMS5003;59889;50.700;5.440;2022-07-19T01:17:38;3;3;
72023;PMS5003;59889;50.700;5.440;2022-07-19T01:20:04;3;3;
72023;PMS5003;59889;50.700;5.440;2022-07-19T01:22:29;4;4;
72023;PMS5003;59889;50.700;5.440;2022-07-19T01:24:55;3;3;
72023;PMS5003;59889;50.700;5.440;2022-07-19T01:27:21;3;3;
72023;PMS5003;59889;50.700;5.440;2022-07-19T01:29:47;3;3;
72023;PMS5003;59889;50.700;5.440;2022-07-19T01:32:13;4;4;
72023;PMS5003;59889;50.700;5.440;2022-07-19T01:34:39;2;2;
72023;PMS5003;59889;50.700;5.440;2022-07-19T01:37:04;3;3;
72023;PMS5003;59889;50.700;5.440;2022-07-19T01:39:30;4;4;
72023;PMS5003;59889;50.700;5.440;2022-07-19T01:41:56;4;3;
72023;PMS5003;59889;50.700;5.440;2022-07-19T01:44:22;4;4;
72023;PMS5003;59889;50.700;5.440;2022-07-19T01:46:48;3;3;
72023;PMS5003;59889;50.700;5.440;2022-07-19T01:49:13;3;3;
72023;PMS5003;59889;50.700;5.440;2022-07-19T01:51:39;4;4;
72023;PMS5003;59889;50.700;5.440;2022-07-19T01:54:05;3;3;
72023;PMS5003;59889;50.700;5.440;2022-07-19T01:56:31;3;3;
72023;PMS5003;59889;50.700;5.440;2022-07-19T01:58:57;3;3;
72023;PMS5003;59889;50.700;5.440;2022-07-19T02:01:23;4;4;
72023;PMS5003;59889;50.700;5.440;2022-07-19T02:03:48;4;3;
72023;PMS5003;59889;50.700;5.440;2022-07-19T02:06:14;2;2;
72023;PMS5003;59889;50.700;5.440;2022-07-19T02:08:40;4;4;
72023;PMS5003;59889;50.700;5.440;2022-07-19T02:11:06;4;2;
72023;PMS5003;59889;50.700;5.440;2022-07-19T02:13:32;4;4;
72023;PMS5003;59889;50.700;5.440;2022-07-19T02:15:57;4;4;
72023;PMS5003;59889;50.700;5.440;2022-07-19T02:18:23;3;3;
72023;PMS5003;59889;50.700;5.440;2022-07-19T02:20:49;4;4;
72023;PMS5003;59889;50.700;5.440;2022-07-19T02:23:15;3;3;
72023;PMS5003;59889;50.700;5.440;2022-07-19T02:25:41;5;4;
72023;PMS5003;59889;50.700;5.440;2022-07-19T02:28:06;4;4;
72023;PMS5003;59889;50.700;5.440;2022-07-19T02:30:32;4;4;
72023;PMS5003;59889;50.700;5.440;2022-07-19T02:32:58;2;2;
72023;PMS5003;59889;50.700;5.440;2022-07-19T02:35:24;4;4;
72023;PMS5003;59889;50.700;5.440;2022-07-19T02:37:50;4;4;
72023;PMS5003;59889;50.700;5.440;2022-07-19T02:40:16;3;3;
72023;PMS5003;59889;50.700;5.440;2022-07-19T02:42:42;3;3;
72023;PMS5003;59889;50.700;5.440;2022-07-19T02:45:08;4;4;
72023;PMS5003;59889;50.700;5.440;2022-07-19T02:47:33;3;3;
72023;PMS5003;59889;50.700;5.440;2022-07-19T02:49:59;5;5;
72023;PMS5003;59889;50.700;5.440;2022-07-19T02:52:25;3;3;
72023;PMS5003;59889;50.700;5.440;2022-07-19T02:54:51;4;4;
72023;PMS5003;59889;50.700;5.440;2022-07-19T02:57:16;5;5;
72023;PMS5003;59889;50.700;5.440;2022-07-19T02:59:42;2;2;
72023;PMS5003;59889;50.700;5.440;2022-07-19T03:02:08;4;4;
72023;PMS5003;59889;50.700;5.440;2022-07-19T03:04:34;4;3;
72023;PMS5003;59889;50.700;5.440;2022-07-19T03:07:00;2;2;
72023;PMS5003;59889;50.700;5.440;2022-07-19T03:09:26;5;5;
72023;PMS5003;59889;50.700;5.440;2022-07-19T03:11:51;4;4;
72023;PMS5003;59889;50.700;5.440;2022-07-19T03:14:17;4;4;
72023;PMS5003;59889;50.700;5.440;2022-07-19T03:16:43;4;4;
72023;PMS5003;59889;50.700;5.440;2022-07-19T03:19:09;5;4;
72023;PMS5003;59889;50.700;5.440;2022-07-19T03:21:35;4;4;
72023;PMS5003;59889;50.700;5.440;2022-07-19T03:24:00;4;4;
72023;PMS5003;59889;50.700;5.440;2022-07-19T03:26:26;4;4;
72023;PMS5003;59889;50.700;5.440;2022-07-19T03:28:52;4;4;
72023;PMS5003;59889;50.700;5.440;2022-07-19T03:31:18;4;3;
72023;PMS5003;59889;50.700;5.440;2022-07-19T03:33:44;5;5;
72023;PMS5003;59889;50.700;5.440;2022-07-19T03:36:10;5;5;
72023;PMS5003;59889;50.700;5.440;2022-07-19T03:38:35;4;4;
72023;PMS5003;59889;50.700;5.440;2022-07-19T03:41:01;4;4;
72023;PMS5003;59889;50.700;5.440;2022-07-19T03:43:27;4;4;
72023;PMS5003;59889;50.700;5.440;2022-07-19T03:45:53;4;4;
72023;PMS5003;59889;50.700;5.440;2022-07-19T03:48:19;3;3;
72023;PMS5003;59889;50.700;5.440;2022-07-19T03:50:45;6;6;
72023;PMS5003;59889;50.700;5.440;2022-07-19T03:53:10;5;4;
72023;PMS5003;59889;50.700;5.440;2022-07-19T03:55:36;4;4;
72023;PMS5003;59889;50.700;5.440;2022-07-19T03:58:02;4;4;
72023;PMS5003;59889;50.700;5.440;2022-07-19T04:00:28;6;5;
72023;PMS5003;59889;50.700;5.440;2022-07-19T04:02:54;5;5;
72023;PMS5003;59889;50.700;5.440;2022-07-19T04:05:20;3;2;
72023;PMS5003;59889;50.700;5.440;2022-07-19T04:07:45;4;4;
72023;PMS5003;59889;50.700;5.440;2022-07-19T04:10:11;4;4;
72023;PMS5003;59889;50.700;5.440;2022-07-19T04:12:37;5;5;
72023;PMS5003;59889;50.700;5.440;2022-07-19T04:15:03;4;4;
72023;PMS5003;59889;50.700;5.440;2022-07-19T04:17:29;5;5;
72023;PMS5003;59889;50.700;5.440;2022-07-19T04:19:54;5;5;
72023;PMS5003;59889;50.700;5.440;2022-07-19T04:22:20;3;3;
72023;PMS5003;59889;50.700;5.440;2022-07-19T04:24:46;5;5;
72023;PMS5003;59889;50.700;5.440;2022-07-19T04:27:12;5;5;
72023;PMS5003;59889;50.700;5.440;2022-07-19T04:29:38;6;5;
72023;PMS5003;59889;50.700;5.440;2022-07-19T04:32:04;5;5;
72023;PMS5003;59889;50.700;5.440;2022-07-19T04:34:29;5;5;
72023;PMS5003;59889;50.700;5.440;2022-07-19T04:36:55;4;4;
72023;PMS5003;59889;50.700;5.440;2022-07-19T04:39:21;3;3;
72023;PMS5003;59889;50.700;5.440;2022-07-19T04:41:47;4;4;
72023;PMS5003;59889;50.700;5.440;2022-07-19T04:44:13;5;5;
72023;PMS5003;59889;50.700;5.440;2022-07-19T04:46:39;5;5;
72023;PMS5003;59889;50.700;5.440;2022-07-19T04:49:04;6;5;
72023;PMS5003;59889;50.700;5.440;2022-07-19T04:51:30;5;5;
72023;PMS5003;59889;50.700;5.440;2022-07-19T04:53:56;4;4;
72023;PMS5003;59889;50.700;5.440;2022-07-19T04:56:22;4;4;
72023;PMS5003;59889;50.700;5.440;2022-07-19T04:58:48;5;5;
72023;PMS5003;59889;50.700;5.440;2022-07-19T05:01:13;5;5;
72023;PMS5003;59889;50.700;5.440;2022-07-19T05:03:39;4;4;
72023;PMS5003;59889;50.700;5.440;2022-07-19T05:06:05;5;5;
72023;PMS5003;59889;50.700;5.440;2022-07-19T05:08:31;5;5;
72023;PMS5003;59889;50.700;5.440;2022-07-19T05:10:57;4;4;
72023;PMS5003;59889;50.700;5.440;2022-07-19T05:13:23;6;6;
72023;PMS5003;59889;50.700;5.440;2022-07-19T05:15:48;6;6;
72023;PMS5003;59889;50.700;5.440;2022-07-19T05:18:14;4;4;
72023;PMS5003;59889;50.700;5.440;2022-07-19T05:20:40;5;5;
72023;PMS5003;59889;50.700;5.440;2022-07-19T05:23:06;6;6;
72023;PMS5003;59889;50.700;5.440;2022-07-19T05:25:32;6;6;
72023;PMS5003;59889;50.700;5.440;2022-07-19T05:27:58;6;6;
72023;PMS5003;59889;50.700;5.440;2022-07-19T05:30:23;6;6;
72023;PMS5003;59889;50.700;5.440;2022-07-19T05:32:49;4;4;
72023;PMS5003;59889;50.700;5.440;2022-07-19T05:35:15;4;4;
72023;PMS5003;59889;50.700;5.440;2022-07-19T05:37:41;5;5;
72023;PMS5003;59889;50.700;5.440;2022-07-19T05:40:08;6;5;
72023;PMS5003;59889;50.700;5.440;2022-07-19T05:42:33;6;6;
72023;PMS5003;59889;50.700;5.440;2022-07-19T05:44:58;6;6;
72023;PMS5003;59889;50.700;5.440;2022-07-19T05:47:24;5;5;
72023;PMS5003;59889;50.700;5.440;2022-07-19T05:49:50;5;5;
72023;PMS5003;59889;50.700;5.440;2022-07-19T05:52:16;5;5;
72023;PMS5003;59889;50.700;5.440;2022-07-19T05:54:42;4;4;
72023;PMS5003;59889;50.700;5.440;2022-07-19T05:57:08;5;5;
72023;PMS5003;59889;50.700;5.440;2022-07-19T05:59:33;8;8;
72023;PMS5003;59889;50.700;5.440;2022-07-19T06:01:59;9;8;
72023;PMS5003;59889;50.700;5.440;2022-07-19T06:04:25;7;6;
72023;PMS5003;59889;50.700;5.440;2022-07-19T06:06:51;8;7;
72023;PMS5003;59889;50.700;5.440;2022-07-19T06:09:17;9;9;
72023;PMS5003;59889;50.700;5.440;2022-07-19T06:11:43;9;8;
72023;PMS5003;59889;50.700;5.440;2022-07-19T06:14:09;11;11;
72023;PMS5003;59889;50.700;5.440;2022-07-19T06:16:34;9;9;
72023;PMS5003;59889;50.700;5.440;2022-07-19T06:19:00;10;10;
72023;PMS5003;59889;50.700;5.440;2022-07-19T06:21:25;10;10;
72023;PMS5003;59889;50.700;5.440;2022-07-19T06:23:51;10;10;
72023;PMS5003;59889;50.700;5.440;2022-07-19T06:26:17;8;8;
72023;PMS5003;59889;50.700;5.440;2022-07-19T06:28:43;11;11;
72023;PMS5003;59889;50.700;5.440;2022-07-19T06:31:09;11;11;
72023;PMS5003;59889;50.700;5.440;2022-07-19T06:33:34;10;9;
72023;PMS5003;59889;50.700;5.440;2022-07-19T06:36:00;11;9;
72023;PMS5003;59889;50.700;5.440;2022-07-19T06:38:26;11;11;
72023;PMS5003;59889;50.700;5.440;2022-07-19T06:40:52;9;9;
72023;PMS5003;59889;50.700;5.440;2022-07-19T06:43:18;11;11;
72023;PMS5003;59889;50.700;5.440;2022-07-19T06:45:44;12;10;
72023;PMS5003;59889;50.700;5.440;2022-07-19T06:48:09;10;10;
72023;PMS5003;59889;50.700;5.440;2022-07-19T06:50:35;12;12;
72023;PMS5003;59889;50.700;5.440;2022-07-19T06:53:01;9;9;
72023;PMS5003;59889;50.700;5.440;2022-07-19T06:55:27;11;10;
72023;PMS5003;59889;50.700;5.440;2022-07-19T06:57:53;9;9;
72023;PMS5003;59889;50.700;5.440;2022-07-19T07:00:19;10;9;
72023;PMS5003;59889;50.700;5.440;2022-07-19T07:02:45;10;10;
72023;PMS5003;59889;50.700;5.440;2022-07-19T07:05:11;13;12;
72023;PMS5003;59889;50.700;5.440;2022-07-19T07:07:36;10;10;
72023;PMS5003;59889;50.700;5.440;2022-07-19T07:10:02;11;11;
72023;PMS5003;59889;50.700;5.440;2022-07-19T07:12:28;11;11;
72023;PMS5003;59889;50.700;5.440;2022-07-19T07:14:54;9;8;
72023;PMS5003;59889;50.700;5.440;2022-07-19T07:17:20;11;10;
72023;PMS5003;59889;50.700;5.440;2022-07-19T07:19:45;11;11;
72023;PMS5003;59889;50.700;5.440;2022-07-19T07:22:11;9;8;
72023;PMS5003;59889;50.700;5.440;2022-07-19T07:24:37;12;11;
72023;PMS5003;59889;50.700;5.440;2022-07-19T07:27:03;10;10;
72023;PMS5003;59889;50.700;5.440;2022-07-19T07:29:30;12;11;
72023;PMS5003;59889;50.700;5.440;2022-07-19T07:31:54;14;13;
72023;PMS5003;59889;50.700;5.440;2022-07-19T07:34:20;11;11;
72023;PMS5003;59889;50.700;5.440;2022-07-19T07:36:46;9;9;
72023;PMS5003;59889;50.700;5.440;2022-07-19T07:39:12;14;12;
72023;PMS5003;59889;50.700;5.440;2022-07-19T07:41:37;12;11;
72023;PMS5003;59889;50.700;5.440;2022-07-19T07:44:03;10;10;
72023;PMS5003;59889;50.700;5.440;2022-07-19T07:46:30;12;11;
72023;PMS5003;59889;50.700;5.440;2022-07-19T07:48:55;12;12;
72023;PMS5003;59889;50.700;5.440;2022-07-19T07:51:21;14;12;
72023;PMS5003;59889;50.700;5.440;2022-07-19T07:53:46;13;12;
72023;PMS5003;59889;50.700;5.440;2022-07-19T07:56:12;11;11;
72023;PMS5003;59889;50.700;5.440;2022-07-19T07:58:38;12;12;
72023;PMS5003;59889;50.700;5.440;2022-07-19T08:01:04;12;12;
72023;PMS5003;59889;50.700;5.440;2022-07-19T08:03:30;13;11;
72023;PMS5003;59889;50.700;5.440;2022-07-19T08:05:55;13;12;
72023;PMS5003;59889;50.700;5.440;2022-07-19T08:08:22;10;10;
72023;PMS5003;59889;50.700;5.440;2022-07-19T08:10:48;10;9;
72023;PMS5003;59889;50.700;5.440;2022-07-19T08:13:13;11;11;
72023;PMS5003;59889;50.700;5.440;2022-07-19T08:15:39;12;12;
72023;PMS5003;59889;50.700;5.440;2022-07-19T08:18:05;13;13;
72023;PMS5003;59889;50.700;5.440;2022-07-19T08:20:31;12;11;
72023;PMS5003;59889;50.700;5.440;2022-07-19T08:22:56;12;11;
72023;PMS5003;59889;50.700;5.440;2022-07-19T08:25:22;11;11;
72023;PMS5003;59889;50.700;5.440;2022-07-19T08:27:48;10;9;
72023;PMS5003;59889;50.700;5.440;2022-07-19T08:30:14;11;11;
72023;PMS5003;59889;50.700;5.440;2022-07-19T08:32:40;11;10;
72023;PMS5003;59889;50.700;5.440;2022-07-19T08:35:06;12;11;
72023;PMS5003;59889;50.700;5.440;2022-07-19T08:37:32;12;12;
72023;PMS5003;59889;50.700;5.440;2022-07-19T08:39:57;10;10;
72023;PMS5003;59889;50.700;5.440;2022-07-19T08:42:23;10;10;
72023;PMS5003;59889;50.700;5.440;2022-07-19T08:44:49;11;11;
72023;PMS5003;59889;50.700;5.440;2022-07-19T08:47:14;9;8;
72023;PMS5003;59889;50.700;5.440;2022-07-19T08:49:41;10;9;
72023;PMS5003;59889;50.700;5.440;2022-07-19T08:52:06;12;11;
72023;PMS5003;59889;50.700;5.440;2022-07-19T08:54:32;11;10;
72023;PMS5003;59889;50.700;5.440;2022-07-19T08:56:58;12;12;
72023;PMS5003;59889;50.700;5.440;2022-07-19T08:59:23;11;10;
72023;PMS5003;59889;50.700;5.440;2022-07-19T09:01:50;11;11;
72023;PMS5003;59889;50.700;5.440;2022-07-19T09:04:16;10;10;
72023;PMS5003;59889;50.700;5.440;2022-07-19T09:06:42;11;10;
72023;PMS5003;59889;50.700;5.440;2022-07-19T09:09:07;10;10;
72023;PMS5003;59889;50.700;5.440;2022-07-19T09:11:34;10;10;
72023;PMS5003;59889;50.700;5.440;2022-07-19T09:14:03;8;8;
72023;PMS5003;59889;50.700;5.440;2022-07-19T09:16:24;11;11;
72023;PMS5003;59889;50.700;5.440;2022-07-19T09:18:50;12;12;
72023;PMS5003;59889;50.700;5.440;2022-07-19T09:21:16;10;10;
72023;PMS5003;59889;50.700;5.440;2022-07-19T09:23:42;10;9;
72023;PMS5003;59889;50.700;5.440;2022-07-19T09:26:08;10;9;
72023;PMS5003;59889;50.700;5.440;2022-07-19T09:28:34;10;9;
72023;PMS5003;59889;50.700;5.440;2022-07-19T09:30:59;10;10;
72023;PMS5003;59889;50.700;5.440;2022-07-19T09:33:25;10;10;
72023;PMS5003;59889;50.700;5.440;2022-07-19T09:35:51;12;11;
72023;PMS5003;59889;50.700;5.440;2022-07-19T09:38:18;11;10;
72023;PMS5003;59889;50.700;5.440;2022-07-19T09:40:42;11;10;
72023;PMS5003;59889;50.700;5.440;2022-07-19T09:43:08;11;10;
72023;PMS5003;59889;50.700;5.440;2022-07-19T09:45:34;11;10;
72023;PMS5003;59889;50.700;5.440;2022-07-19T09:48:00;11;11;
72023;PMS5003;59889;50.700;5.440;2022-07-19T09:50:26;10;10;
72023;PMS5003;59889;50.700;5.440;2022-07-19T09:52:52;10;10;
72023;PMS5003;59889;50.700;5.440;2022-07-19T09:55:18;10;10;
72023;PMS5003;59889;50.700;5.440;2022-07-19T09:57:45;10;10;
72023;PMS5003;59889;50.700;5.440;2022-07-19T10:00:10;11;10;
72023;PMS5003;59889;50.700;5.440;2022-07-19T10:02:35;10;10;
72023;PMS5003;59889;50.700;5.440;2022-07-19T10:05:01;8;8;
72023;PMS5003;59889;50.700;5.440;2022-07-19T10:07:26;8;8;
72023;PMS5003;59889;50.700;5.440;2022-07-19T10:09:52;10;10;
72023;PMS5003;59889;50.700;5.440;2022-07-19T10:12:18;9;9;
72023;PMS5003;59889;50.700;5.440;2022-07-19T10:14:44;12;12;
72023;PMS5003;59889;50.700;5.440;2022-07-19T10:17:17;9;9;
72023;PMS5003;59889;50.700;5.440;2022-07-19T10:19:37;8;8;
72023;PMS5003;59889;50.700;5.440;2022-07-19T10:22:02;10;10;
72023;PMS5003;59889;50.700;5.440;2022-07-19T10:26:55;9;9;
72023;PMS5003;59889;50.700;5.440;2022-07-19T10:29:19;12;11;
72023;PMS5003;59889;50.700;5.440;2022-07-19T10:32:00;11;10;
72023;PMS5003;59889;50.700;5.440;2022-07-19T10:34:13;9;9;
72023;PMS5003;59889;50.700;5.440;2022-07-19T10:36:37;11;11;
72023;PMS5003;59889;50.700;5.440;2022-07-19T10:41:28;11;9;
72023;PMS5003;59889;50.700;5.440;2022-07-19T10:46:23;11;11;
72023;PMS5003;59889;50.700;5.440;2022-07-19T10:48:47;10;10;
72023;PMS5003;59889;50.700;5.440;2022-07-19T10:51:12;11;10;
72023;PMS5003;59889;50.700;5.440;2022-07-19T10:58:29;9;8;
72023;PMS5003;59889;50.700;5.440;2022-07-19T11:00:55;12;11;
72023;PMS5003;59889;50.700;5.440;2022-07-19T11:03:26;12;11;
72023;PMS5003;59889;50.700;5.440;2022-07-19T11:05:48;8;8;
72023;PMS5003;59889;50.700;5.440;2022-07-19T11:08:12;11;11;
72023;PMS5003;59889;50.700;5.440;2022-07-19T11:10:39;11;11;
72023;PMS5003;59889;50.700;5.440;2022-07-19T11:13:04;10;10;
72023;PMS5003;59889;50.700;5.440;2022-07-19T11:15:35;10;10;
72023;PMS5003;59889;50.700;5.440;2022-07-19T11:17:57;10;9;
72023;PMS5003;59889;50.700;5.440;2022-07-19T11:20:22;9;9;
72023;PMS5003;59889;50.700;5.440;2022-07-19T11:22:47;9;9;
72023;PMS5003;59889;50.700;5.440;2022-07-19T11:25:14;9;9;
72023;PMS5003;59889;50.700;5.440;2022-07-19T11:27:40;9;8;
72023;PMS5003;59889;50.700;5.440;2022-07-19T11:30:05;10;9;
72023;PMS5003;59889;50.700;5.440;2022-07-19T11:32:31;11;11;
72023;PMS5003;59889;50.700;5.440;2022-07-19T11:34:57;9;9;
72023;PMS5003;59889;50.700;5.440;2022-07-19T11:37:23;10;10;
72023;PMS5003;59889;50.700;5.440;2022-07-19T11:39:48;12;11;
72023;PMS5003;59889;50.700;5.440;2022-07-19T11:42:14;9;9;
72023;PMS5003;59889;50.700;5.440;2022-07-19T11:44:40;9;9;
72023;PMS5003;59889;50.700;5.440;2022-07-19T11:47:06;13;13;
72023;PMS5003;59889;50.700;5.440;2022-07-19T11:51:57;11;10;
72023;PMS5003;59889;50.700;5.440;2022-07-19T11:54:23;8;8;
72023;PMS5003;59889;50.700;5.440;2022-07-19T11:56:49;9;8;
72023;PMS5003;59889;50.700;5.440;2022-07-19T11:59:15;10;9;
72023;PMS5003;59889;50.700;5.440;2022-07-19T12:01:40;9;9;
72023;PMS5003;59889;50.700;5.440;2022-07-19T12:04:07;11;10;
72023;PMS5003;59889;50.700;5.440;2022-07-19T12:06:34;10;9;
72023;PMS5003;59889;50.700;5.440;2022-07-19T12:09:03;11;10;
72023;PMS5003;59889;50.700;5.440;2022-07-19T12:11:24;7;7;
72023;PMS5003;59889;50.700;5.440;2022-07-19T12:13:50;10;10;
72023;PMS5003;59889;50.700;5.440;2022-07-19T12:16:16;9;9;
72023;PMS5003;59889;50.700;5.440;2022-07-19T12:18:43;9;9;
72023;PMS5003;59889;50.700;5.440;2022-07-19T12:23:33;8;8;
72023;PMS5003;59889;50.700;5.440;2022-07-19T12:26:02;10;9;
72023;PMS5003;59889;50.700;5.440;2022-07-19T12:28:25;8;8;
72023;PMS5003;59889;50.700;5.440;2022-07-19T12:33:16;9;8;
72023;PMS5003;59889;50.700;5.440;2022-07-19T12:35:43;8;8;
72023;PMS5003;59889;50.700;5.440;2022-07-19T12:38:08;9;9;
72023;PMS5003;59889;50.700;5.440;2022-07-19T12:40:34;10;9;
72023;PMS5003;59889;50.700;5.440;2022-07-19T12:42:59;9;8;
72023;PMS5003;59889;50.700;5.440;2022-07-19T12:45:26;9;9;
72023;PMS5003;59889;50.700;5.440;2022-07-19T12:47:51;8;8;
72023;PMS5003;59889;50.700;5.440;2022-07-19T12:50:19;10;10;
72023;PMS5003;59889;50.700;5.440;2022-07-19T12:52:43;11;11;
72023;PMS5003;59889;50.700;5.440;2022-07-19T12:55:08;10;10;
72023;PMS5003;59889;50.700;5.440;2022-07-19T12:57:34;12;11;
72023;PMS5003;59889;50.700;5.440;2022-07-19T13:00:00;9;9;
72023;PMS5003;59889;50.700;5.440;2022-07-19T13:02:26;10;10;
72023;PMS5003;59889;50.700;5.440;2022-07-19T13:04:52;11;11;
72023;PMS5003;59889;50.700;5.440;2022-07-19T13:07:17;10;10;
72023;PMS5003;59889;50.700;5.440;2022-07-19T13:09:43;11;11;
72023;PMS5003;59889;50.700;5.440;2022-07-19T13:12:09;10;10;
72023;PMS5003;59889;50.700;5.440;2022-07-19T13:14:35;10;10;
72023;PMS5003;59889;50.700;5.440;2022-07-19T13:17:02;11;10;
72023;PMS5003;59889;50.700;5.440;2022-07-19T13:19:27;10;10;
72023;PMS5003;59889;50.700;5.440;2022-07-19T13:21:53;10;10;
72023;PMS5003;59889;50.700;5.440;2022-07-19T13:24:18;10;10;
72023;PMS5003;59889;50.700;5.440;2022-07-19T13:26:45;11;11;
72023;PMS5003;59889;50.700;5.440;2022-07-19T13:29:10;9;9;
72023;PMS5003;59889;50.700;5.440;2022-07-19T13:31:36;10;10;
72023;PMS5003;59889;50.700;5.440;2022-07-19T13:34:01;12;11;
72023;PMS5003;59889;50.700;5.440;2022-07-19T13:36:27;11;10;
72023;PMS5003;59889;50.700;5.440;2022-07-19T13:38:53;14;13;
72023;PMS5003;59889;50.700;5.440;2022-07-19T13:41:19;7;7;
72023;PMS5003;59889;50.700;5.440;2022-07-19T13:43:45;11;11;
72023;PMS5003;59889;50.700;5.440;2022-07-19T13:46:10;8;8;
72023;PMS5003;59889;50.700;5.440;2022-07-19T13:48:36;9;9;
72023;PMS5003;59889;50.700;5.440;2022-07-19T13:51:02;9;8;
72023;PMS5003;59889;50.700;5.440;2022-07-19T13:53:28;9;8;
72023;PMS5003;59889;50.700;5.440;2022-07-19T13:55:54;8;7;
72023;PMS5003;59889;50.700;5.440;2022-07-19T13:58:20;8;8;
72023;PMS5003;59889;50.700;5.440;2022-07-19T14:00:45;11;10;
72023;PMS5003;59889;50.700;5.440;2022-07-19T14:03:11;9;9;
72023;PMS5003;59889;50.700;5.440;2022-07-19T14:05:37;7;7;
72023;PMS5003;59889;50.700;5.440;2022-07-19T14:08:03;8;8;
72023;PMS5003;59889;50.700;5.440;2022-07-19T14:10:29;9;9;
72023;PMS5003;59889;50.700;5.440;2022-07-19T14:12:54;10;10;
72023;PMS5003;59889;50.700;5.440;2022-07-19T14:15:20;10;10;
72023;PMS5003;59889;50.700;5.440;2022-07-19T14:17:46;10;10;
72023;PMS5003;59889;50.700;5.440;2022-07-19T14:20:12;10;10;
72023;PMS5003;59889;50.700;5.440;2022-07-19T14:22:38;9;9;
72023;PMS5003;59889;50.700;5.440;2022-07-19T14:25:04;10;10;
72023;PMS5003;59889;50.700;5.440;2022-07-19T14:27:29;10;10;
72023;PMS5003;59889;50.700;5.440;2022-07-19T14:29:55;10;10;
72023;PMS5003;59889;50.700;5.440;2022-07-19T14:32:21;10;10;
72023;PMS5003;59889;50.700;5.440;2022-07-19T14:34:46;12;12;
72023;PMS5003;59889;50.700;5.440;2022-07-19T14:37:12;9;9;
72023;PMS5003;59889;50.700;5.440;2022-07-19T14:39:38;12;11;
72023;PMS5003;59889;50.700;5.440;2022-07-19T14:42:04;10;10;
72023;PMS5003;59889;50.700;5.440;2022-07-19T14:44:31;11;11;
72023;PMS5003;59889;50.700;5.440;2022-07-19T14:46:56;12;10;
72023;PMS5003;59889;50.700;5.440;2022-07-19T14:49:22;11;11;
72023;PMS5003;59889;50.700;5.440;2022-07-19T14:51:47;11;11;
72023;PMS5003;59889;50.700;5.440;2022-07-19T14:54:13;10;10;
72023;PMS5003;59889;50.700;5.440;2022-07-19T14:56:39;13;12;
72023;PMS5003;59889;50.700;5.440;2022-07-19T14:59:05;11;11;
72023;PMS5003;59889;50.700;5.440;2022-07-19T15:01:31;11;10;
72023;PMS5003;59889;50.700;5.440;2022-07-19T15:03:56;11;11;
72023;PMS5003;59889;50.700;5.440;2022-07-19T15:06:22;10;9;
72023;PMS5003;59889;50.700;5.440;2022-07-19T15:08:48;12;11;
72023;PMS5003;59889;50.700;5.440;2022-07-19T15:11:14;10;10;
72023;PMS5003;59889;50.700;5.440;2022-07-19T15:13:39;11;11;
72023;PMS5003;59889;50.700;5.440;2022-07-19T15:16:06;9;9;
72023;PMS5003;59889;50.700;5.440;2022-07-19T15:18:31;10;9;
72023;PMS5003;59889;50.700;5.440;2022-07-19T15:20:57;11;11;
72023;PMS5003;59889;50.700;5.440;2022-07-19T15:23:23;10;10;
72023;PMS5003;59889;50.700;5.440;2022-07-19T15:25:49;9;9;
72023;PMS5003;59889;50.700;5.440;2022-07-19T15:28:14;9;8;
72023;PMS5003;59889;50.700;5.440;2022-07-19T15:30:41;10;10;
72023;PMS5003;59889;50.700;5.440;2022-07-19T15:33:06;10;10;
72023;PMS5003;59889;50.700;5.440;2022-07-19T15:35:32;10;10;
72023;PMS5003;59889;50.700;5.440;2022-07-19T15:37:58;10;9;
72023;PMS5003;59889;50.700;5.440;2022-07-19T15:40:24;8;8;
72023;PMS5003;59889;50.700;5.440;2022-07-19T15:42:50;10;10;
72023;PMS5003;59889;50.700;5.440;2022-07-19T15:45:15;10;9;
72023;PMS5003;59889;50.700;5.440;2022-07-19T15:47:41;9;9;
72023;PMS5003;59889;50.700;5.440;2022-07-19T15:50:07;11;10;
72023;PMS5003;59889;50.700;5.440;2022-07-19T15:52:33;11;11;
72023;PMS5003;59889;50.700;5.440;2022-07-19T15:54:58;9;8;
72023;PMS5003;59889;50.700;5.440;2022-07-19T15:57:24;9;9;
72023;PMS5003;59889;50.700;5.440;2022-07-19T15:59:50;8;8;
72023;PMS5003;59889;50.700;5.440;2022-07-19T16:02:16;7;7;
72023;PMS5003;59889;50.700;5.440;2022-07-19T16:04:41;10;9;
72023;PMS5003;59889;50.700;5.440;2022-07-19T16:07:08;8;8;
72023;PMS5003;59889;50.700;5.440;2022-07-19T16:09:33;9;9;
72023;PMS5003;59889;50.700;5.440;2022-07-19T16:11:59;10;9;
72023;PMS5003;59889;50.700;5.440;2022-07-19T16:14:25;10;10;
72023;PMS5003;59889;50.700;5.440;2022-07-19T16:16:50;10;9;
72023;PMS5003;59889;50.700;5.440;2022-07-19T16:19:16;9;9;
72023;PMS5003;59889;50.700;5.440;2022-07-19T16:21:42;7;7;
72023;PMS5003;59889;50.700;5.440;2022-07-19T16:24:08;8;8;
72023;PMS5003;59889;50.700;5.440;2022-07-19T16:26:34;9;8;
72023;PMS5003;59889;50.700;5.440;2022-07-19T16:28:59;10;9;
72023;PMS5003;59889;50.700;5.440;2022-07-19T16:31:25;9;9;
72023;PMS5003;59889;50.700;5.440;2022-07-19T16:33:51;8;8;
72023;PMS5003;59889;50.700;5.440;2022-07-19T16:36:17;10;10;
72023;PMS5003;59889;50.700;5.440;2022-07-19T16:38:43;10;10;
72023;PMS5003;59889;50.700;5.440;2022-07-19T16:41:08;10;9;
72023;PMS5003;59889;50.700;5.440;2022-07-19T16:43:34;7;7;
72023;PMS5003;59889;50.700;5.440;2022-07-19T16:46:00;10;9;
72023;PMS5003;59889;50.700;5.440;2022-07-19T16:48:26;11;10;